Time;durP1;ratioP1;P1;durP2;ratioP2;P2;SDS_P1;SDS_P2;PMS_P1;PMS_P2;Temp;Humidity;BMP_temperature;BMP_pressure;BME280_temperature;BME280_humidity;BME280_pressure;Samples;Min_cycle;Max_cycle;Signal;HPM_P1;HPM_P2
2021/09/07 00:01:56;;;;;;;36.73;21.57;;;20.40;66.10;;;;;;4985764;28;20184;-84
2021/09/07 00:04:28;;;;;;;34.23;20.27;;;20.40;65.70;;;;;;4986347;28;20194;-83
2021/09/07 00:06:58;;;;;;;41.10;21.35;;;20.40;65.70;;;;;;4987111;28;20193;-84
2021/09/07 00:09:24;;;;;;;38.30;22.75;;;20.40;65.70;;;;;;4984528;28;20198;-84
2021/09/07 00:11:50;;;;;;;35.57;21.30;;;20.30;65.90;;;;;;5002208;28;20326;-82
2021/09/07 00:14:16;;;;;;;33.60;20.37;;;20.30;65.90;;;;;;4998160;28;20446;-84
2021/09/07 00:16:42;;;;;;;33.73;20.00;;;20.30;66.00;;;;;;4999729;28;20307;-83
2021/09/07 00:19:08;;;;;;;34.83;21.73;;;20.20;66.30;;;;;;4973769;28;20202;-83
2021/09/07 00:21:34;;;;;;;32.65;20.10;;;20.20;66.70;;;;;;4999691;28;20539;-82
2021/09/07 00:24:00;;;;;;;33.90;21.93;;;20.20;66.50;;;;;;4978419;28;20244;-82
2021/09/07 00:26:26;;;;;;;35.43;22.77;;;20.30;66.20;;;;;;4962753;28;20176;-84
2021/09/07 00:28:51;;;;;;;39.17;21.50;;;20.30;66.00;;;;;;4980064;28;20250;-82
2021/09/07 00:31:17;;;;;;;36.07;21.67;;;20.20;66.00;;;;;;4962211;28;20427;-83
2021/09/07 00:33:43;;;;;;;32.90;20.40;;;20.30;66.00;;;;;;4963739;28;20271;-83
2021/09/07 00:36:08;;;;;;;34.47;21.40;;;20.40;65.80;;;;;;4963156;28;20199;-82
2021/09/07 00:38:34;;;;;;;36.23;21.87;;;20.40;65.40;;;;;;4962703;28;20188;-82
2021/09/07 00:41:00;;;;;;;36.23;21.20;;;20.40;65.60;;;;;;4963118;28;20211;-83
2021/09/07 00:43:26;;;;;;;34.93;20.87;;;20.30;66.00;;;;;;4963446;28;20199;-83
2021/09/07 00:45:51;;;;;;;33.30;19.63;;;20.20;66.20;;;;;;4951157;28;20427;-83
2021/09/07 00:48:17;;;;;;;36.00;21.30;;;20.20;66.40;;;;;;4966950;28;20478;-83
2021/09/07 00:50:43;;;;;;;36.93;22.47;;;20.10;66.80;;;;;;4996887;28;20191;-82
2021/09/07 00:53:09;;;;;;;37.53;21.80;;;20.10;66.80;;;;;;4979295;28;20230;-83
2021/09/07 00:55:35;;;;;;;41.33;22.07;;;20.10;66.90;;;;;;4980150;28;20171;-82
2021/09/07 00:58:03;;;;;;;37.60;20.67;;;19.90;67.20;;;;;;4979998;28;20184;-82
2021/09/07 01:00:30;;;;;;;35.85;20.05;;;19.90;67.50;;;;;;4997827;28;20203;-82
2021/09/07 01:02:56;;;;;;;42.33;22.38;;;19.90;67.50;;;;;;4979381;28;20204;-83
2021/09/07 01:05:22;;;;;;;33.30;21.97;;;20.00;67.40;;;;;;4980183;28;20176;-83
2021/09/07 01:07:48;;;;;;;35.33;21.87;;;20.10;67.40;;;;;;4997258;28;20223;-84
2021/09/07 01:10:13;;;;;;;33.77;22.17;;;19.90;67.30;;;;;;4980617;28;20435;-82
2021/09/07 01:12:39;;;;;;;36.80;21.47;;;19.90;67.50;;;;;;4996981;28;20214;-83
2021/09/07 01:15:07;;;;;;;36.40;22.20;;;19.90;67.70;;;;;;4980521;28;20187;-83
2021/09/07 01:17:33;;;;;;;37.58;21.33;;;19.90;67.80;;;;;;4979763;28;20407;-82
2021/09/07 01:19:59;;;;;;;36.60;22.10;;;19.80;67.90;;;;;;4968845;28;20207;-84
2021/09/07 01:22:25;;;;;;;34.27;22.53;;;19.80;68.00;;;;;;4962829;28;20200;-84
2021/09/07 01:24:51;;;;;;;35.57;21.90;;;19.90;68.10;;;;;;4972896;28;20191;-84
2021/09/07 01:27:21;;;;;;;39.10;22.52;;;19.80;68.10;;;;;;4982918;28;20494;-84
2021/09/07 01:29:48;;;;;;;35.30;21.92;;;19.70;68.40;;;;;;4984910;28;20183;-84
2021/09/07 01:32:14;;;;;;;46.05;22.95;;;19.60;68.40;;;;;;4982398;28;20238;-84
2021/09/07 01:34:40;;;;;;;38.78;22.83;;;19.60;68.50;;;;;;5000445;28;20198;-83
2021/09/07 01:37:07;;;;;;;41.85;23.58;;;19.60;68.50;;;;;;4983917;28;20176;-83
2021/09/07 01:39:33;;;;;;;36.03;23.27;;;19.60;68.50;;;;;;4987182;28;20183;-84
2021/09/07 01:42:00;;;;;;;35.33;21.00;;;19.50;68.80;;;;;;5005154;28;20186;-83
2021/09/07 01:44:26;;;;;;;38.30;22.10;;;19.40;69.10;;;;;;4990251;28;20191;-84
2021/09/07 01:46:52;;;;;;;37.53;22.17;;;19.50;69.20;;;;;;4989472;28;20245;-84
2021/09/07 01:49:18;;;;;;;36.47;21.77;;;19.50;69.10;;;;;;4989770;28;20195;-83
2021/09/07 01:51:46;;;;;;;40.22;22.67;;;19.60;68.90;;;;;;5010253;28;20262;-84
2021/09/07 01:54:12;;;;;;;41.40;23.10;;;19.60;68.60;;;;;;4992192;28;20203;-83
2021/09/07 01:56:40;;;;;;;45.13;25.40;;;19.60;68.50;;;;;;5010642;28;20163;-84
2021/09/07 01:59:05;;;;;;;42.15;23.92;;;19.60;68.50;;;;;;4997390;28;20191;-84
2021/09/07 02:01:31;;;;;;;43.57;22.10;;;19.50;68.60;;;;;;4992860;28;20182;-84
2021/09/07 02:03:57;;;;;;;38.53;21.53;;;19.50;68.60;;;;;;5005860;28;20662;-83
2021/09/07 02:06:23;;;;;;;37.70;21.47;;;19.50;68.70;;;;;;4987638;28;20956;-83
2021/09/07 02:08:49;;;;;;;42.65;22.83;;;19.50;68.70;;;;;;4990266;28;20237;-83
2021/09/07 02:11:15;;;;;;;37.03;22.40;;;19.50;68.80;;;;;;4990016;28;20183;-84
2021/09/07 02:13:40;;;;;;;35.10;21.70;;;19.50;68.80;;;;;;4990764;28;20203;-83
2021/09/07 02:16:06;;;;;;;38.70;21.80;;;19.50;68.60;;;;;;4987748;28;20175;-83
2021/09/07 02:18:32;;;;;;;35.57;21.67;;;19.60;68.60;;;;;;4988148;28;20480;-84
2021/09/07 02:20:58;;;;;;;43.20;23.03;;;19.60;68.40;;;;;;4989275;28;20179;-83
2021/09/07 02:23:23;;;;;;;40.03;24.13;;;19.60;68.30;;;;;;4987281;28;20311;-83
2021/09/07 02:25:49;;;;;;;38.87;22.57;;;19.50;68.60;;;;;;4970890;28;20191;-84
2021/09/07 02:28:15;;;;;;;46.10;23.30;;;19.50;68.70;;;;;;4969873;28;20266;-83
2021/09/07 02:30:41;;;;;;;42.10;23.60;;;19.50;68.60;;;;;;4968238;28;20191;-83
2021/09/07 02:33:08;;;;;;;42.53;24.50;;;19.40;68.60;;;;;;4969423;28;20554;-84
2021/09/07 02:35:34;;;;;;;42.67;23.60;;;19.20;69.00;;;;;;4968906;28;20183;-84
2021/09/07 02:38:03;;;;;;;41.03;21.92;;;19.20;69.20;;;;;;4967763;28;20234;-84
2021/09/07 02:40:29;;;;;;;43.67;23.77;;;19.30;69.40;;;;;;4984817;28;20175;-83
2021/09/07 02:42:55;;;;;;;38.80;22.97;;;19.20;69.30;;;;;;4983538;28;20263;-83
2021/09/07 02:45:20;;;;;;;39.60;22.50;;;19.20;69.50;;;;;;4966370;28;20474;-83
2021/09/07 02:47:46;;;;;;;42.77;23.60;;;19.10;69.70;;;;;;4984943;28;20251;-82
2021/09/07 02:50:15;;;;;;;37.80;23.83;;;19.10;69.90;;;;;;4965492;28;20190;-83
2021/09/07 02:52:42;;;;;;;45.08;22.73;;;19.10;70.20;;;;;;4965498;28;20562;-85
2021/09/07 02:55:08;;;;;;;43.83;22.60;;;19.10;70.10;;;;;;4966643;28;20200;-84
2021/09/07 02:57:34;;;;;;;37.50;23.05;;;19.00;70.10;;;;;;4966823;28;20180;-84
2021/09/07 03:00:00;;;;;;;44.80;24.00;;;19.00;70.40;;;;;;4966108;28;20195;-84
2021/09/07 03:02:26;;;;;;;36.17;20.80;;;18.90;70.60;;;;;;4965994;28;20214;-83
2021/09/07 03:04:52;;;;;;;38.50;24.05;;;19.00;70.60;;;;;;4967302;28;20423;-83
2021/09/07 03:07:19;;;;;;;44.43;23.70;;;19.00;70.60;;;;;;4967375;28;20215;-84
2021/09/07 03:09:45;;;;;;;41.67;24.70;;;19.00;70.50;;;;;;4967924;28;20491;-84
2021/09/07 03:12:10;;;;;;;38.17;23.63;;;18.90;70.50;;;;;;4984854;28;20184;-84
2021/09/07 03:14:37;;;;;;;44.00;25.50;;;18.90;70.50;;;;;;4952116;28;20487;-84
2021/09/07 03:17:03;;;;;;;36.65;22.25;;;18.90;70.50;;;;;;4969706;28;20419;-84
2021/09/07 03:19:29;;;;;;;39.90;23.70;;;18.90;70.50;;;;;;4972165;28;20187;-83
2021/09/07 03:21:54;;;;;;;40.83;23.60;;;18.80;70.50;;;;;;4982208;28;20418;-84
2021/09/07 03:24:20;;;;;;;38.67;22.00;;;18.80;70.60;;;;;;4981060;28;20449;-83
2021/09/07 03:26:46;;;;;;;33.40;22.80;;;18.90;70.50;;;;;;5003507;28;20167;-84
2021/09/07 03:29:11;;;;;;;42.03;23.53;;;18.80;70.30;;;;;;5002520;28;20598;-83
2021/09/07 03:31:37;;;;;;;38.97;21.73;;;18.80;70.50;;;;;;4986089;28;20218;-84
2021/09/07 03:34:04;;;;;;;39.17;24.13;;;18.80;70.50;;;;;;5004978;28;20226;-84
2021/09/07 03:36:30;;;;;;;39.83;23.85;;;18.80;70.40;;;;;;4987167;28;20175;-83
2021/09/07 03:38:55;;;;;;;48.37;24.67;;;18.80;70.50;;;;;;4987970;28;20230;-84
2021/09/07 03:41:21;;;;;;;41.27;22.17;;;18.80;70.50;;;;;;5008213;28;20497;-84
2021/09/07 03:43:47;;;;;;;39.77;22.73;;;18.80;70.50;;;;;;4992675;28;20249;-83
2021/09/07 03:46:13;;;;;;;38.67;22.60;;;18.70;70.50;;;;;;4990708;28;20233;-83
2021/09/07 03:48:40;;;;;;;42.70;25.87;;;18.80;70.50;;;;;;5004725;28;20219;-84
2021/09/07 03:51:05;;;;;;;36.22;22.77;;;18.70;70.40;;;;;;4988043;28;20415;-84
2021/09/07 03:53:32;;;;;;;36.37;22.57;;;18.60;70.50;;;;;;5001660;28;20195;-83
2021/09/07 03:55:57;;;;;;;35.72;21.67;;;18.70;70.70;;;;;;4986267;28;20179;-84
2021/09/07 03:58:23;;;;;;;39.80;23.77;;;18.60;70.50;;;;;;4986258;28;20242;-84
2021/09/07 04:00:49;;;;;;;36.77;21.30;;;18.50;70.80;;;;;;4986975;28;20513;-84
2021/09/07 04:03:17;;;;;;;35.73;22.07;;;18.60;70.90;;;;;;4984601;28;20588;-84
2021/09/07 04:05:44;;;;;;;36.33;22.85;;;18.60;70.80;;;;;;4986332;28;20468;-84
2021/09/07 04:08:12;;;;;;;39.60;22.95;;;18.60;70.80;;;;;;5004154;28;20789;-84
2021/09/07 04:10:38;;;;;;;38.65;22.15;;;18.60;70.70;;;;;;4986073;28;20223;-84
2021/09/07 04:13:05;;;;;;;34.25;20.02;;;18.50;70.80;;;;;;5002837;28;20610;-85
2021/09/07 04:15:32;;;;;;;38.25;23.27;;;18.60;70.80;;;;;;4985330;28;20583;-84
2021/09/07 04:17:58;;;;;;;40.83;23.33;;;18.50;70.80;;;;;;5002607;28;20166;-83
2021/09/07 04:20:23;;;;;;;46.87;25.20;;;18.50;70.70;;;;;;5002223;28;20179;-84
2021/09/07 04:22:50;;;;;;;40.60;23.10;;;18.50;70.80;;;;;;5004269;28;20199;-85
2021/09/07 04:25:16;;;;;;;36.85;22.70;;;18.50;70.80;;;;;;4972001;28;20636;-84
2021/09/07 04:27:42;;;;;;;39.17;23.88;;;18.40;70.80;;;;;;4963924;28;20200;-84
2021/09/07 04:30:09;;;;;;;37.07;24.07;;;18.40;70.80;;;;;;4983100;28;20175;-85
2021/09/07 04:32:35;;;;;;;37.03;22.95;;;18.40;70.80;;;;;;4982995;28;20577;-84
2021/09/07 04:35:02;;;;;;;36.85;21.45;;;18.40;70.90;;;;;;4950404;28;20215;-85
2021/09/07 04:37:28;;;;;;;41.10;22.73;;;18.40;70.90;;;;;;4966565;28;20527;-85
2021/09/07 04:39:54;;;;;;;47.63;24.03;;;18.50;71.00;;;;;;4965916;28;20283;-84
2021/09/07 04:42:20;;;;;;;42.43;24.77;;;18.50;70.80;;;;;;4983419;28;20213;-84
2021/09/07 04:44:46;;;;;;;45.80;21.50;;;18.50;70.80;;;;;;4966983;28;20180;-84
2021/09/07 04:47:12;;;;;;;38.20;21.70;;;18.30;70.90;;;;;;4965447;28;20183;-83
2021/09/07 04:49:39;;;;;;;37.13;20.57;;;18.30;71.10;;;;;;4967175;28;20279;-84
2021/09/07 04:52:06;;;;;;;41.55;24.77;;;18.30;71.40;;;;;;4969910;28;20439;-84
2021/09/07 04:54:31;;;;;;;36.85;22.15;;;18.40;71.00;;;;;;4987056;28;20518;-83
2021/09/07 04:56:57;;;;;;;41.70;23.17;;;18.40;70.90;;;;;;4967412;28;20254;-84
2021/09/07 04:59:23;;;;;;;44.30;21.80;;;18.30;71.00;;;;;;4965407;28;20184;-83
2021/09/07 05:01:49;;;;;;;38.20;22.97;;;18.40;70.90;;;;;;4966953;28;20620;-84
2021/09/07 05:04:14;;;;;;;35.00;21.00;;;18.40;70.90;;;;;;4984836;28;20203;-83
2021/09/07 05:06:40;;;;;;;42.57;22.20;;;18.30;71.00;;;;;;5001621;28;20198;-83
2021/09/07 05:09:06;;;;;;;39.63;23.77;;;18.40;70.90;;;;;;4983705;28;20671;-84
2021/09/07 05:11:31;;;;;;;38.13;23.37;;;18.30;70.50;;;;;;5002502;28;20175;-85
2021/09/07 05:13:58;;;;;;;41.67;23.03;;;18.30;71.20;;;;;;4987292;28;20199;-85
2021/09/07 05:16:24;;;;;;;37.88;22.20;;;18.30;71.00;;;;;;4986698;28;20171;-84
2021/09/07 05:18:50;;;;;;;35.90;21.53;;;18.30;71.10;;;;;;4985630;28;20570;-85
2021/09/07 05:21:15;;;;;;;37.60;21.87;;;18.30;71.10;;;;;;4985278;28;20179;-88
2021/09/07 05:23:41;;;;;;;39.97;24.47;;;18.30;71.00;;;;;;4996803;28;20481;-85
2021/09/07 05:26:07;;;;;;;38.27;21.53;;;18.30;71.00;;;;;;4982994;28;20182;-86
2021/09/07 05:28:33;;;;;;;41.58;22.80;;;18.40;70.90;;;;;;4968940;28;20203;-84
2021/09/07 05:30:59;;;;;;;45.93;23.80;;;18.50;71.00;;;;;;4983868;28;20194;-85
2021/09/07 05:33:26;;;;;;;36.28;22.52;;;18.50;70.60;;;;;;4983868;28;20509;-85
2021/09/07 05:35:52;;;;;;;41.70;22.52;;;18.50;70.60;;;;;;4984253;28;20247;-85
2021/09/07 05:38:18;;;;;;;36.00;20.35;;;18.50;70.40;;;;;;5001479;28;20517;-85
2021/09/07 05:40:44;;;;;;;44.00;24.67;;;18.50;70.50;;;;;;4982278;28;20235;-85
2021/09/07 05:43:10;;;;;;;41.83;23.77;;;18.50;70.20;;;;;;4956919;28;20211;-84
2021/09/07 05:45:36;;;;;;;37.40;22.10;;;18.60;70.40;;;;;;4960345;28;20585;-85
2021/09/07 05:48:01;;;;;;;39.20;21.87;;;18.60;70.20;;;;;;4963365;28;20214;-85
2021/09/07 05:50:27;;;;;;;39.17;22.13;;;18.70;70.00;;;;;;4962473;28;20270;-86
2021/09/07 05:52:53;;;;;;;35.87;22.00;;;19.00;69.30;;;;;;4964399;28;20204;-86
2021/09/07 05:55:19;;;;;;;35.20;22.40;;;19.30;68.50;;;;;;4959465;28;20422;-86
2021/09/07 05:57:45;;;;;;;38.87;22.07;;;19.50;67.70;;;;;;4960403;28;20188;-86
2021/09/07 06:00:12;;;;;;;39.88;22.30;;;19.70;66.80;;;;;;4976092;28;20415;-86
2021/09/07 06:02:40;;;;;;;41.83;22.80;;;19.80;66.40;;;;;;4958975;28;20207;-86
2021/09/07 06:05:07;;;;;;;35.55;22.20;;;20.20;65.70;;;;;;4961614;28;20184;-86
2021/09/07 06:07:32;;;;;;;42.40;20.83;;;20.60;64.20;;;;;;4981119;28;20203;-85
2021/09/07 06:09:58;;;;;;;44.83;22.40;;;20.90;63.10;;;;;;4963158;28;20177;-85
2021/09/07 06:12:25;;;;;;;33.17;19.90;;;21.10;62.10;;;;;;4966687;28;20203;-85
2021/09/07 06:14:51;;;;;;;32.70;20.67;;;21.30;61.10;;;;;;4974624;28;20183;-84
2021/09/07 06:17:17;;;;;;;40.43;21.50;;;21.60;60.10;;;;;;4980247;28;20514;-85
2021/09/07 06:19:43;;;;;;;37.37;21.37;;;21.80;59.50;;;;;;4980356;28;20438;-84
2021/09/07 06:22:09;;;;;;;33.43;20.50;;;21.90;59.00;;;;;;4996618;28;20427;-85
2021/09/07 06:24:35;;;;;;;33.00;20.03;;;21.90;58.40;;;;;;4980533;28;20179;-86
2021/09/07 06:27:01;;;;;;;37.97;20.90;;;22.20;57.80;;;;;;4983597;28;20539;-87
2021/09/07 06:29:27;;;;;;;36.13;21.70;;;22.30;57.30;;;;;;4983459;28;20176;-84
2021/09/07 06:31:53;;;;;;;35.20;20.50;;;22.30;57.10;;;;;;4999865;28;20426;-85
2021/09/07 06:34:24;;;;;;;37.60;20.63;;;22.30;57.10;;;;;;4983323;28;20431;-86
2021/09/07 06:36:54;;;;;;;37.23;21.70;;;22.30;56.70;;;;;;4968203;28;20443;-83
2021/09/07 06:39:20;;;;;;;39.33;21.53;;;22.30;56.80;;;;;;4989624;28;20457;-85
2021/09/07 06:41:46;;;;;;;40.60;24.57;;;22.30;56.80;;;;;;5002155;28;20438;-86
2021/09/07 06:44:12;;;;;;;43.90;24.33;;;22.30;57.00;;;;;;5002655;28;20434;-85
2021/09/07 06:46:38;;;;;;;33.13;22.17;;;22.20;57.30;;;;;;5017425;28;20445;-86
2021/09/07 06:49:04;;;;;;;40.60;24.13;;;22.10;57.50;;;;;;5000589;28;20496;-85
2021/09/07 06:51:30;;;;;;;37.37;22.13;;;22.10;57.50;;;;;;5000451;28;20502;-86
2021/09/07 06:53:56;;;;;;;32.70;21.80;;;22.00;58.20;;;;;;4998106;28;20450;-86
2021/09/07 06:56:21;;;;;;;42.37;26.03;;;21.80;57.90;;;;;;5004862;28;20600;-86
2021/09/07 06:58:47;;;;;;;43.17;25.40;;;21.70;58.40;;;;;;4980648;28;20592;-86
2021/09/07 07:01:13;;;;;;;35.70;21.93;;;21.60;58.70;;;;;;4982726;28;20187;-86
2021/09/07 07:03:38;;;;;;;35.70;23.43;;;21.40;59.30;;;;;;4985472;28;20274;-85
2021/09/07 07:06:04;;;;;;;39.73;22.60;;;21.40;59.80;;;;;;4984617;28;20183;-87
2021/09/07 07:08:30;;;;;;;40.50;25.27;;;21.40;60.00;;;;;;5015924;28;20199;-85
2021/09/07 07:10:56;;;;;;;45.50;24.30;;;21.30;60.10;;;;;;4986947;28;20180;-86
2021/09/07 07:13:21;;;;;;;43.67;22.80;;;21.20;60.30;;;;;;4979500;28;20206;-86
2021/09/07 07:15:47;;;;;;;36.83;23.27;;;21.20;60.60;;;;;;4981879;28;20194;-86
2021/09/07 07:18:13;;;;;;;47.87;24.27;;;21.20;60.90;;;;;;4979827;28;20179;-86
2021/09/07 07:20:39;;;;;;;40.57;23.60;;;21.20;61.20;;;;;;4997397;28;20587;-86
2021/09/07 07:23:04;;;;;;;37.93;23.17;;;21.30;61.20;;;;;;4979543;28;20211;-86
2021/09/07 07:25:31;;;;;;;44.40;24.70;;;21.30;61.20;;;;;;4979739;28;20270;-87
2021/09/07 07:27:57;;;;;;;39.17;24.10;;;21.30;61.00;;;;;;4997416;28;20195;-86
2021/09/07 07:30:25;;;;;;;39.20;23.80;;;21.40;60.70;;;;;;4965593;28;20603;-86
2021/09/07 07:32:52;;;;;;;42.67;24.20;;;21.30;60.50;;;;;;4983158;28;20517;-86
2021/09/07 07:35:18;;;;;;;34.33;21.23;;;21.30;60.80;;;;;;4991524;28;20450;-85
2021/09/07 07:37:44;;;;;;;37.93;22.93;;;21.40;60.60;;;;;;4999620;28;20434;-85
2021/09/07 07:40:10;;;;;;;37.63;22.23;;;21.50;60.80;;;;;;4999473;28;20182;-86
2021/09/07 07:42:35;;;;;;;38.23;23.23;;;21.60;60.90;;;;;;4979803;28;20215;-86
2021/09/07 07:45:04;;;;;;;36.70;23.40;;;21.80;61.00;;;;;;4979205;28;20414;-87
2021/09/07 07:47:29;;;;;;;38.37;22.70;;;21.90;61.00;;;;;;4982635;28;20241;-86
2021/09/07 07:49:55;;;;;;;37.40;21.90;;;21.90;61.00;;;;;;4982554;28;20786;-86
2021/09/07 07:52:23;;;;;;;42.50;23.80;;;22.00;60.50;;;;;;4999112;28;20222;-87
2021/09/07 07:54:50;;;;;;;34.47;21.87;;;22.00;60.10;;;;;;4980054;28;20429;-86
2021/09/07 07:57:19;;;;;;;36.50;22.07;;;22.10;60.00;;;;;;4982575;28;20430;-86
2021/09/07 07:59:45;;;;;;;35.80;20.50;;;22.10;59.20;;;;;;4980860;28;20918;-86
2021/09/07 08:02:11;;;;;;;39.57;23.47;;;22.00;58.30;;;;;;4979457;28;20415;-86
2021/09/07 08:04:39;;;;;;;39.73;22.03;;;22.00;58.50;;;;;;5000067;28;20406;-85
2021/09/07 08:07:05;;;;;;;41.67;20.80;;;21.90;58.40;;;;;;4981770;28;20753;-86
2021/09/07 08:09:31;;;;;;;41.73;21.50;;;21.90;58.50;;;;;;4982640;28;20439;-87
2021/09/07 08:11:58;;;;;;;44.80;22.70;;;22.00;58.40;;;;;;4981454;28;20418;-86
2021/09/07 08:14:24;;;;;;;34.67;21.00;;;22.00;58.30;;;;;;4965765;28;20462;-86
2021/09/07 08:16:50;;;;;;;32.97;20.20;;;22.20;58.30;;;;;;4981688;28;20426;-86
2021/09/07 08:19:16;;;;;;;41.30;21.77;;;22.30;58.20;;;;;;4981606;28;20438;-87
2021/09/07 08:21:42;;;;;;;35.73;21.83;;;22.40;57.90;;;;;;4980821;28;20423;-87
2021/09/07 08:24:08;;;;;;;40.93;20.50;;;22.40;57.80;;;;;;4981258;28;20194;-87
2021/09/07 08:26:34;;;;;;;33.90;20.40;;;22.50;58.10;;;;;;4966388;28;20429;-86
2021/09/07 08:29:00;;;;;;;35.97;22.20;;;22.60;57.50;;;;;;4999325;28;20482;-86
2021/09/07 08:31:26;;;;;;;33.90;22.00;;;22.70;57.20;;;;;;4980894;28;20255;-85
2021/09/07 08:33:52;;;;;;;40.43;21.47;;;22.70;56.40;;;;;;4997474;28;20215;-87
2021/09/07 08:36:17;;;;;;;42.87;23.67;;;22.70;56.00;;;;;;4978447;28;20425;-87
2021/09/07 08:38:43;;;;;;;40.00;22.17;;;22.80;56.20;;;;;;4979225;28;20206;-86
2021/09/07 08:41:13;;;;;;;35.80;21.90;;;22.80;56.20;;;;;;4979957;28;20198;-86
2021/09/07 08:43:39;;;;;;;37.30;21.13;;;22.80;56.20;;;;;;4978804;28;20266;-86
2021/09/07 08:46:05;;;;;;;43.53;21.60;;;23.00;56.60;;;;;;4978414;28;20430;-87
2021/09/07 08:48:32;;;;;;;35.93;20.93;;;23.10;56.30;;;;;;4977937;28;20488;-86
2021/09/07 08:50:58;;;;;;;40.80;21.20;;;23.20;56.70;;;;;;4978603;28;20425;-86
2021/09/07 08:53:24;;;;;;;36.37;20.03;;;23.40;56.90;;;;;;4997515;28;20529;-87
2021/09/07 08:55:51;;;;;;;36.03;20.37;;;23.40;55.20;;;;;;4996044;28;20179;-87
2021/09/07 08:58:19;;;;;;;41.90;22.90;;;23.30;54.60;;;;;;4995873;28;20399;-87
2021/09/07 09:00:49;;;;;;;31.37;20.40;;;23.40;54.40;;;;;;4978386;28;20945;-86
2021/09/07 09:03:15;;;;;;;33.87;19.80;;;23.50;55.00;;;;;;4977823;28;20446;-86
2021/09/07 09:05:43;;;;;;;33.90;21.83;;;23.50;54.60;;;;;;4979060;28;20429;-86
2021/09/07 09:08:13;;;;;;;33.10;20.87;;;23.60;53.60;;;;;;4980894;28;20488;-86
2021/09/07 09:10:40;;;;;;;39.57;22.10;;;23.50;52.70;;;;;;4980023;28;20473;-87
2021/09/07 09:13:12;;;;;;;43.73;20.07;;;23.50;53.60;;;;;;4979824;28;20450;-85
2021/09/07 09:15:39;;;;;;;41.93;21.57;;;23.60;53.80;;;;;;4978427;28;20426;-87
2021/09/07 09:18:10;;;;;;;32.17;20.30;;;23.70;52.90;;;;;;4995120;28;20418;-86
2021/09/07 09:20:38;;;;;;;40.80;21.60;;;24.00;52.90;;;;;;4978201;28;20430;-86
2021/09/07 09:23:06;;;;;;;34.57;19.60;;;23.90;52.20;;;;;;4998666;28;20434;-86
2021/09/07 09:25:33;;;;;;;30.40;18.43;;;23.90;51.10;;;;;;4963744;28;20448;-87
2021/09/07 09:27:58;;;;;;;33.50;18.97;;;24.00;50.30;;;;;;4958322;28;20459;-87
2021/09/07 09:30:30;;;;;;;33.97;21.50;;;23.70;49.80;;;;;;4958992;28;20419;-86
2021/09/07 09:33:00;;;;;;;30.90;18.83;;;23.70;47.80;;;;;;4975166;28;20350;-86
2021/09/07 09:35:27;;;;;;;36.73;19.73;;;23.70;48.20;;;;;;4976611;28;20434;-86
2021/09/07 09:38:00;;;;;;;32.43;17.97;;;23.70;47.30;;;;;;4945296;28;20430;-86
2021/09/07 09:40:27;;;;;;;32.73;18.00;;;23.80;46.50;;;;;;4959141;28;20450;-86
2021/09/07 09:42:54;;;;;;;38.40;18.70;;;23.80;46.40;;;;;;4957751;28;20484;-86
2021/09/07 09:45:28;;;;;;;27.83;17.83;;;23.90;46.10;;;;;;4958484;28;20427;-86
2021/09/07 09:47:56;;;;;;;27.23;16.97;;;23.90;45.50;;;;;;4959216;28;20454;-86
2021/09/07 09:50:25;;;;;;;28.20;16.60;;;24.10;46.20;;;;;;4976736;28;20451;-86
2021/09/07 09:52:51;;;;;;;30.20;17.67;;;24.30;46.00;;;;;;4960964;28;20506;-85
2021/09/07 09:55:18;;;;;;;29.03;18.00;;;24.40;46.30;;;;;;4976864;28;20429;-87
2021/09/07 09:57:44;;;;;;;33.10;20.20;;;24.40;47.00;;;;;;4999310;28;20426;-86
2021/09/07 10:00:15;;;;;;;35.50;19.10;;;24.30;44.40;;;;;;4981497;28;20434;-86
2021/09/07 10:02:42;;;;;;;32.70;18.17;;;24.30;45.00;;;;;;4970094;28;20572;-86
2021/09/07 10:05:12;;;;;;;31.07;18.77;;;24.40;45.50;;;;;;4984233;28;20750;-86
2021/09/07 10:07:37;;;;;;;30.23;16.70;;;24.50;44.70;;;;;;4984215;28;20470;-86
2021/09/07 10:10:07;;;;;;;31.30;16.67;;;24.40;44.10;;;;;;4985991;28;20425;-86
2021/09/07 10:12:54;;;;;;;27.07;17.07;;;24.50;44.30;;;;;;5003645;28;20215;-86
2021/09/07 10:15:43;;;;;;;24.60;17.00;;;24.50;43.70;;;;;;5004840;28;20526;-86
2021/09/07 10:24:16;;;;;;;24.20;15.50;;;24.70;43.10;;;;;;5003165;28;20498;-86
2021/09/07 10:26:42;;;;;;;25.27;14.97;;;24.90;42.10;;;;;;4988627;28;20422;-87
2021/09/07 10:29:20;;;;;;;24.67;14.60;;;24.80;41.90;;;;;;4988505;28;20473;-86
2021/09/07 10:31:51;;;;;;;24.47;15.50;;;24.90;41.60;;;;;;5002635;28;20502;-86
2021/09/07 10:34:25;;;;;;;25.37;14.70;;;25.00;42.40;;;;;;4969000;28;20481;-86
2021/09/07 10:37:03;;;;;;;26.30;15.30;;;25.10;42.10;;;;;;4970164;28;20882;-86
2021/09/07 10:39:41;;;;;;;26.10;16.87;;;25.00;42.10;;;;;;4969822;28;20422;-86
2021/09/07 10:42:33;;;;;;;21.57;14.07;;;25.30;42.20;;;;;;4987312;28;20426;-86
2021/09/07 10:45:00;;;;;;;29.13;16.80;;;25.30;42.00;;;;;;4976278;28;20408;-86
2021/09/07 10:47:42;;;;;;;30.03;13.63;;;25.20;42.80;;;;;;4953289;28;20434;-86
2021/09/07 10:50:08;;;;;;;18.77;12.47;;;25.30;40.20;;;;;;4964269;28;20411;-86
2021/09/07 10:52:35;;;;;;;20.23;12.90;;;25.40;41.10;;;;;;4980589;28;20572;-86
2021/09/07 10:55:15;;;;;;;18.30;12.67;;;25.50;42.00;;;;;;4979124;28;20527;-87
2021/09/07 10:57:44;;;;;;;19.20;11.57;;;25.60;42.40;;;;;;4961733;28;20463;-86
2021/09/07 11:00:16;;;;;;;24.60;13.40;;;25.80;42.30;;;;;;4961598;28;20919;-86
2021/09/07 11:02:54;;;;;;;23.73;12.37;;;25.50;41.70;;;;;;4962181;28;20462;-86
2021/09/07 11:05:26;;;;;;;16.37;10.83;;;25.40;42.30;;;;;;4985616;28;20404;-86
2021/09/07 11:08:04;;;;;;;19.20;13.43;;;25.50;42.20;;;;;;4982835;28;20490;-85
2021/09/07 11:10:34;;;;;;;18.20;12.80;;;25.60;42.30;;;;;;4973222;28;20960;-86
2021/09/07 11:13:04;;;;;;;19.70;13.60;;;25.60;42.80;;;;;;4959762;28;20460;-87
2021/09/07 11:15:37;;;;;;;20.70;13.63;;;25.60;42.60;;;;;;4961545;28;20439;-86
2021/09/07 11:18:13;;;;;;;19.93;12.33;;;25.80;42.60;;;;;;4961262;28;20423;-86
2021/09/07 11:20:46;;;;;;;25.27;14.07;;;25.80;43.00;;;;;;4963792;28;20443;-87
2021/09/07 11:23:33;;;;;;;18.40;11.90;;;25.80;42.90;;;;;;4991148;28;20511;-86
2021/09/07 11:26:07;;;;;;;19.20;10.90;;;25.60;43.20;;;;;;4966753;28;20416;-86
2021/09/07 11:28:35;;;;;;;17.40;11.43;;;25.80;43.20;;;;;;4971995;28;20530;-86
2021/09/07 11:31:02;;;;;;;17.03;11.37;;;26.00;42.60;;;;;;4956565;28;20419;-86
2021/09/07 11:33:34;;;;;;;19.93;11.10;;;26.00;42.00;;;;;;4996452;28;20470;-84
2021/09/07 11:36:05;;;;;;;11.70;9.53;;;26.10;41.90;;;;;;5019361;28;20430;-84
2021/09/07 11:38:37;;;;;;;12.90;9.50;;;26.10;42.60;;;;;;5001270;28;20503;-86
2021/09/07 11:41:09;;;;;;;14.47;9.30;;;26.10;42.20;;;;;;4967430;28;20420;-86
2021/09/07 11:43:50;;;;;;;13.13;9.93;;;26.20;42.10;;;;;;4966958;28;20533;-87
2021/09/07 11:46:18;;;;;;;15.47;9.97;;;26.30;42.70;;;;;;4982904;28;20422;-87
2021/09/07 11:48:49;;;;;;;13.90;10.00;;;26.20;42.00;;;;;;4987263;28;20473;-86
2021/09/07 11:51:18;;;;;;;14.13;9.80;;;26.10;42.50;;;;;;4997194;28;20455;-85
2021/09/07 11:53:45;;;;;;;11.70;9.77;;;26.10;42.70;;;;;;5001238;28;20469;-86
2021/09/07 11:56:32;;;;;;;17.20;10.47;;;26.20;42.40;;;;;;5001839;28;20446;-86
2021/09/07 11:59:12;;;;;;;15.20;10.37;;;26.20;42.40;;;;;;5001520;28;20411;-86
2021/09/07 12:01:40;;;;;;;14.93;9.93;;;26.40;42.80;;;;;;5000851;28;20492;-87
2021/09/07 12:04:06;;;;;;;16.23;9.83;;;26.30;43.00;;;;;;5000235;28;20447;-87
2021/09/07 12:06:37;;;;;;;12.83;9.43;;;26.50;42.90;;;;;;5000364;28;20450;-87
2021/09/07 12:09:20;;;;;;;12.73;8.60;;;26.60;43.00;;;;;;5000467;28;20600;-87
2021/09/07 12:11:53;;;;;;;9.60;8.63;;;26.80;43.00;;;;;;5001369;28;20444;-87
2021/09/07 12:14:24;;;;;;;11.37;8.20;;;26.80;42.70;;;;;;5001913;28;20396;-85
2021/09/07 12:16:51;;;;;;;12.93;9.60;;;26.90;41.90;;;;;;5001595;28;20409;-85
2021/09/07 12:19:27;;;;;;;14.43;8.77;;;27.00;42.30;;;;;;5018727;28;20475;-86
2021/09/07 12:22:20;;;;;;;19.33;10.87;;;27.20;42.30;;;;;;5001348;28;20414;-86
2021/09/07 12:25:05;;;;;;;16.27;9.13;;;27.30;42.00;;;;;;5001654;28;20446;-86
2021/09/07 12:27:38;;;;;;;12.93;9.13;;;27.30;41.50;;;;;;5018414;28;20441;-86
2021/09/07 12:30:22;;;;;;;13.77;8.10;;;27.40;41.40;;;;;;5001439;28;20419;-85
2021/09/07 12:33:02;;;;;;;13.87;10.47;;;27.20;41.40;;;;;;5001144;28;20464;-86
2021/09/07 12:35:38;;;;;;;12.33;9.80;;;27.10;42.10;;;;;;5001524;28;20418;-82
2021/09/07 12:38:10;;;;;;;12.40;9.10;;;27.20;42.00;;;;;;5018730;28;20429;-83